sensor_id;sensor_type;location;lat;lon;timestamp;pressure;altitude;pressure_sealevel;temperature;humidity
77205;BME280;66188;46.626;18.866;2022-12-18T00:01:34;101813.78;;;19.81;48.70
77205;BME280;66188;46.626;18.866;2022-12-18T00:04:01;101806.38;;;19.75;48.88
77205;BME280;66188;46.626;18.866;2022-12-18T00:06:28;101812.09;;;19.72;49.25
77205;BME280;66188;46.626;18.866;2022-12-18T00:08:56;101814.25;;;19.68;49.63
77205;BME280;66188;46.626;18.866;2022-12-18T00:11:24;101813.75;;;19.65;49.21
77205;BME280;66188;46.626;18.866;2022-12-18T00:13:51;101821.19;;;19.63;49.42
77205;BME280;66188;46.626;18.866;2022-12-18T00:16:22;101830.44;;;19.60;49.22
77205;BME280;66188;46.626;18.866;2022-12-18T00:18:49;101828.06;;;19.57;49.18
77205;BME280;66188;46.626;18.866;2022-12-18T00:21:15;101836.47;;;19.54;48.93
77205;BME280;66188;46.626;18.866;2022-12-18T00:23:42;101844.03;;;19.50;49.13
77205;BME280;66188;46.626;18.866;2022-12-18T00:26:14;101851.47;;;19.48;49.77
77205;BME280;66188;46.626;18.866;2022-12-18T00:28:43;101853.50;;;19.46;49.15
77205;BME280;66188;46.626;18.866;2022-12-18T00:31:11;101860.91;;;19.44;49.27
77205;BME280;66188;46.626;18.866;2022-12-18T00:33:37;101863.75;;;19.43;49.58
77205;BME280;66188;46.626;18.866;2022-12-18T00:36:04;101861.38;;;19.40;49.59
77205;BME280;66188;46.626;18.866;2022-12-18T00:38:31;101873.31;;;19.37;49.55
77205;BME280;66188;46.626;18.866;2022-12-18T00:40:57;101867.22;;;19.35;49.53
77205;BME280;66188;46.626;18.866;2022-12-18T00:43:22;101873.78;;;19.33;49.60
77205;BME280;66188;46.626;18.866;2022-12-18T00:45:48;101868.69;;;19.30;50.19
77205;BME280;66188;46.626;18.866;2022-12-18T00:48:13;101873.41;;;19.28;50.30
77205;BME280;66188;46.626;18.866;2022-12-18T00:50:39;101865.78;;;19.23;50.18
77205;BME280;66188;46.626;18.866;2022-12-18T00:53:04;101882.00;;;19.23;49.80
77205;BME280;66188;46.626;18.866;2022-12-18T00:55:30;101891.06;;;19.22;50.19
77205;BME280;66188;46.626;18.866;2022-12-18T00:57:55;101893.09;;;19.20;50.59
77205;BME280;66188;46.626;18.866;2022-12-18T01:00:21;101894.25;;;19.18;50.26
77205;BME280;66188;46.626;18.866;2022-12-18T01:02:47;101890.88;;;19.16;50.25
77205;BME280;66188;46.626;18.866;2022-12-18T01:05:13;101895.59;;;19.14;50.72
77205;BME280;66188;46.626;18.866;2022-12-18T01:07:39;101900.44;;;19.10;50.60
77205;BME280;66188;46.626;18.866;2022-12-18T01:10:06;101912.41;;;19.08;51.05
77205;BME280;66188;46.626;18.866;2022-12-18T01:12:32;101918.09;;;19.05;51.26
77205;BME280;66188;46.626;18.866;2022-12-18T01:14:57;101915.75;;;19.02;51.28
77205;BME280;66188;46.626;18.866;2022-12-18T01:17:23;101917.03;;;18.98;51.11
77205;BME280;66188;46.626;18.866;2022-12-18T01:19:48;101921.56;;;18.97;51.35
77205;BME280;66188;46.626;18.866;2022-12-18T01:22:14;101924.44;;;18.96;51.03
77205;BME280;66188;46.626;18.866;2022-12-18T01:24:39;101925.59;;;18.93;51.23
77205;BME280;66188;46.626;18.866;2022-12-18T01:27:05;101931.97;;;18.92;51.41
77205;BME280;66188;46.626;18.866;2022-12-18T01:29:30;101921.50;;;18.89;51.75
77205;BME280;66188;46.626;18.866;2022-12-18T01:31:56;101924.53;;;18.86;51.57
77205;BME280;66188;46.626;18.866;2022-12-18T01:34:23;101914.72;;;18.85;51.49
77205;BME280;66188;46.626;18.866;2022-12-18T01:36:48;101918.59;;;18.82;52.08
77205;BME280;66188;46.626;18.866;2022-12-18T01:39:14;101933.22;;;18.80;51.33
77205;BME280;66188;46.626;18.866;2022-12-18T01:41:40;101923.44;;;18.79;51.70
77205;BME280;66188;46.626;18.866;2022-12-18T01:47:48;101928.44;;;18.74;51.97
77205;BME280;66188;46.626;18.866;2022-12-18T01:52:53;101931.59;;;18.69;51.96
77205;BME280;66188;46.626;18.866;2022-12-18T01:55:23;101941.00;;;18.65;52.08
77205;BME280;66188;46.626;18.866;2022-12-18T01:57:52;101943.72;;;18.65;51.70
77205;BME280;66188;46.626;18.866;2022-12-18T02:00:20;101945.72;;;18.63;51.82
77205;BME280;66188;46.626;18.866;2022-12-18T02:02:47;101946.69;;;18.62;52.16
77205;BME280;66188;46.626;18.866;2022-12-18T02:05:16;101945.00;;;18.61;52.31
77205;BME280;66188;46.626;18.866;2022-12-18T02:10:31;101965.88;;;18.59;52.19
77205;BME280;66188;46.626;18.866;2022-12-18T02:15:41;101964.34;;;18.57;51.86
77205;BME280;66188;46.626;18.866;2022-12-18T02:18:12;101956.53;;;18.54;52.03
77205;BME280;66188;46.626;18.866;2022-12-18T02:20:44;101964.63;;;18.54;51.85
77205;BME280;66188;46.626;18.866;2022-12-18T02:26:30;101971.34;;;18.50;52.16
77205;BME280;66188;46.626;18.866;2022-12-18T02:29:16;101982.13;;;18.50;52.32
77205;BME280;66188;46.626;18.866;2022-12-18T02:31:46;101991.34;;;18.47;52.37
77205;BME280;66188;46.626;18.866;2022-12-18T02:34:16;101991.50;;;18.46;52.12
77205;BME280;66188;46.626;18.866;2022-12-18T02:36:45;101988.06;;;18.44;52.23
77205;BME280;66188;46.626;18.866;2022-12-18T02:39:12;101993.47;;;18.44;52.02
77205;BME280;66188;46.626;18.866;2022-12-18T02:41:38;101988.22;;;18.42;51.88
77205;BME280;66188;46.626;18.866;2022-12-18T02:44:10;101996.31;;;18.42;52.19
77205;BME280;66188;46.626;18.866;2022-12-18T02:46:56;102004.69;;;18.39;51.97
77205;BME280;66188;46.626;18.866;2022-12-18T02:49:49;102004.88;;;18.38;52.17
77205;BME280;66188;46.626;18.866;2022-12-18T03:00:33;102006.31;;;18.32;52.21
77205;BME280;66188;46.626;18.866;2022-12-18T03:03:06;102011.00;;;18.30;52.78
77205;BME280;66188;46.626;18.866;2022-12-18T03:05:41;102015.66;;;18.28;52.49
77205;BME280;66188;46.626;18.866;2022-12-18T03:10:49;102020.53;;;18.24;52.71
77205;BME280;66188;46.626;18.866;2022-12-18T03:13:22;102032.97;;;18.25;52.82
77205;BME280;66188;46.626;18.866;2022-12-18T03:15:50;102030.59;;;18.22;52.73
77205;BME280;66188;46.626;18.866;2022-12-18T03:18:24;102030.75;;;18.21;52.35
77205;BME280;66188;46.626;18.866;2022-12-18T03:20:53;102039.09;;;18.18;52.89
77205;BME280;66188;46.626;18.866;2022-12-18T03:23:22;102043.81;;;18.16;53.09
77205;BME280;66188;46.626;18.866;2022-12-18T03:25:52;102052.75;;;18.16;53.01
77205;BME280;66188;46.626;18.866;2022-12-18T03:28:21;102045.09;;;18.12;52.81
77205;BME280;66188;46.626;18.866;2022-12-18T03:30:50;102038.00;;;18.11;52.59
77205;BME280;66188;46.626;18.866;2022-12-18T03:33:25;102045.41;;;18.09;53.00
77205;BME280;66188;46.626;18.866;2022-12-18T03:35:52;102050.78;;;18.09;53.51
77205;BME280;66188;46.626;18.866;2022-12-18T03:38:18;102051.94;;;18.06;53.06
77205;BME280;66188;46.626;18.866;2022-12-18T03:46:26;102056.75;;;18.03;53.00
77205;BME280;66188;46.626;18.866;2022-12-18T03:52:04;102067.97;;;17.98;53.38
77205;BME280;66188;46.626;18.866;2022-12-18T03:54:31;102068.13;;;17.97;53.36
77205;BME280;66188;46.626;18.866;2022-12-18T03:57:03;102066.41;;;17.96;53.12
77205;BME280;66188;46.626;18.866;2022-12-18T03:59:31;102063.88;;;17.94;53.40
77205;BME280;66188;46.626;18.866;2022-12-18T04:01:57;102072.81;;;17.95;53.23
77205;BME280;66188;46.626;18.866;2022-12-18T04:04:25;102083.00;;;17.91;53.39
77205;BME280;66188;46.626;18.866;2022-12-18T04:06:52;102090.25;;;17.91;53.53
77205;BME280;66188;46.626;18.866;2022-12-18T04:09:20;102102.84;;;17.90;53.44
77205;BME280;66188;46.626;18.866;2022-12-18T04:11:46;102105.69;;;17.89;53.42
77205;BME280;66188;46.626;18.866;2022-12-18T04:14:12;102096.06;;;17.86;53.69
77205;BME280;66188;46.626;18.866;2022-12-18T04:16:37;102103.44;;;17.84;53.69
77205;BME280;66188;46.626;18.866;2022-12-18T04:19:03;102098.06;;;17.84;53.83
77205;BME280;66188;46.626;18.866;2022-12-18T04:21:29;102098.06;;;17.84;53.53
77205;BME280;66188;46.626;18.866;2022-12-18T04:23:55;102111.38;;;17.86;53.51
77205;BME280;66188;46.626;18.866;2022-12-18T04:26:20;102121.44;;;17.84;53.60
77205;BME280;66188;46.626;18.866;2022-12-18T04:28:46;102119.88;;;17.81;53.64
77205;BME280;66188;46.626;18.866;2022-12-18T04:31:12;102112.78;;;17.80;53.43
77205;BME280;66188;46.626;18.866;2022-12-18T04:33:37;102106.56;;;17.80;53.54
77205;BME280;66188;46.626;18.866;2022-12-18T04:36:03;102116.50;;;17.79;53.58
77205;BME280;66188;46.626;18.866;2022-12-18T04:38:29;102121.03;;;17.79;53.90
77205;BME280;66188;46.626;18.866;2022-12-18T04:40:54;102123.84;;;17.77;53.66
77205;BME280;66188;46.626;18.866;2022-12-18T04:43:20;102135.63;;;17.76;53.84
77205;BME280;66188;46.626;18.866;2022-12-18T04:45:45;102128.53;;;17.75;54.02
77205;BME280;66188;46.626;18.866;2022-12-18T04:48:11;102130.50;;;17.73;53.69
77205;BME280;66188;46.626;18.866;2022-12-18T04:50:36;102134.06;;;17.74;53.30
77205;BME280;66188;46.626;18.866;2022-12-18T04:53:02;102145.81;;;17.73;53.53
77205;BME280;66188;46.626;18.866;2022-12-18T04:55:27;102135.19;;;17.71;53.75
77205;BME280;66188;46.626;18.866;2022-12-18T04:57:53;102142.41;;;17.71;53.66
77205;BME280;66188;46.626;18.866;2022-12-18T05:00:19;102145.25;;;17.69;53.98
77205;BME280;66188;46.626;18.866;2022-12-18T05:02:44;102147.97;;;17.69;53.81
77205;BME280;66188;46.626;18.866;2022-12-18T05:05:10;102148.78;;;17.69;53.94
77205;BME280;66188;46.626;18.866;2022-12-18T05:07:36;102145.38;;;17.67;53.80
77205;BME280;66188;46.626;18.866;2022-12-18T05:10:02;102142.84;;;17.66;53.91
77205;BME280;66188;46.626;18.866;2022-12-18T05:12:28;102149.22;;;17.65;54.15
77205;BME280;66188;46.626;18.866;2022-12-18T05:14:53;102143.13;;;17.63;53.88
77205;BME280;66188;46.626;18.866;2022-12-18T05:17:18;102148.34;;;17.64;53.85
77205;BME280;66188;46.626;18.866;2022-12-18T05:19:44;102153.91;;;17.63;53.71
77205;BME280;66188;46.626;18.866;2022-12-18T05:22:09;102158.56;;;17.61;54.14
77205;BME280;66188;46.626;18.866;2022-12-18T05:24:35;102153.19;;;17.61;54.06
77205;BME280;66188;46.626;18.866;2022-12-18T05:27:00;102162.25;;;17.60;54.07
77205;BME280;66188;46.626;18.866;2022-12-18T05:29:26;102162.25;;;17.60;54.00
77205;BME280;66188;46.626;18.866;2022-12-18T05:31:51;102174.03;;;17.59;53.77
77205;BME280;66188;46.626;18.866;2022-12-18T05:34:17;102173.03;;;17.60;53.75
77205;BME280;66188;46.626;18.866;2022-12-18T05:36:43;102167.91;;;17.57;53.79
77205;BME280;66188;46.626;18.866;2022-12-18T05:39:08;102164.41;;;17.56;54.24
77205;BME280;66188;46.626;18.866;2022-12-18T05:41:34;102172.31;;;17.58;54.94
77205;BME280;66188;46.626;18.866;2022-12-18T05:43:59;102174.72;;;17.61;55.18
77205;BME280;66188;46.626;18.866;2022-12-18T05:46:25;102174.47;;;17.64;55.11
77205;BME280;66188;46.626;18.866;2022-12-18T05:48:51;102169.63;;;17.67;54.88
77205;BME280;66188;46.626;18.866;2022-12-18T05:51:19;102178.72;;;17.66;54.16
77205;BME280;66188;46.626;18.866;2022-12-18T05:53:45;102177.00;;;17.65;54.06
77205;BME280;66188;46.626;18.866;2022-12-18T05:56:17;102187.91;;;17.64;54.07
77205;BME280;66188;46.626;18.866;2022-12-18T05:58:43;102190.88;;;17.61;54.16
77205;BME280;66188;46.626;18.866;2022-12-18T06:01:23;102189.19;;;17.60;53.91
77205;BME280;66188;46.626;18.866;2022-12-18T06:03:49;102190.47;;;17.56;54.17
77205;BME280;66188;46.626;18.866;2022-12-18T06:06:21;102198.38;;;17.57;53.81
77205;BME280;66188;46.626;18.866;2022-12-18T06:08:48;102203.06;;;17.55;53.76
77205;BME280;66188;46.626;18.866;2022-12-18T06:11:16;102205.91;;;17.54;53.67
77205;BME280;66188;46.626;18.866;2022-12-18T06:13:42;102206.03;;;17.52;53.58
77205;BME280;66188;46.626;18.866;2022-12-18T06:16:08;102206.16;;;17.51;53.85
77205;BME280;66188;46.626;18.866;2022-12-18T06:18:34;102211.53;;;17.51;53.71
77205;BME280;66188;46.626;18.866;2022-12-18T06:21:00;102206.25;;;17.49;53.34
77205;BME280;66188;46.626;18.866;2022-12-18T06:23:26;102210.22;;;17.45;53.74
77205;BME280;66188;46.626;18.866;2022-12-18T06:25:51;102212.22;;;17.43;53.88
77205;BME280;66188;46.626;18.866;2022-12-18T06:28:17;102214.22;;;17.41;54.04
77205;BME280;66188;46.626;18.866;2022-12-18T06:30:43;102238.44;;;17.41;53.91
77205;BME280;66188;46.626;18.866;2022-12-18T06:33:09;102237.41;;;17.42;53.87
77205;BME280;66188;46.626;18.866;2022-12-18T06:35:35;102236.88;;;17.39;53.78
77205;BME280;66188;46.626;18.866;2022-12-18T06:38:01;102236.00;;;17.38;53.93
77205;BME280;66188;46.626;18.866;2022-12-18T06:40:27;102246.78;;;17.38;53.83
77205;BME280;66188;46.626;18.866;2022-12-18T06:42:52;102244.94;;;17.39;53.72
77205;BME280;66188;46.626;18.866;2022-12-18T06:45:18;102248.75;;;17.36;54.54
77205;BME280;66188;46.626;18.866;2022-12-18T06:47:43;102245.75;;;17.39;54.85
77205;BME280;66188;46.626;18.866;2022-12-18T06:50:08;102259.53;;;17.46;55.48
77205;BME280;66188;46.626;18.866;2022-12-18T06:52:34;102258.25;;;17.50;55.08
77205;BME280;66188;46.626;18.866;2022-12-18T06:55:00;102266.22;;;17.51;55.25
77205;BME280;66188;46.626;18.866;2022-12-18T06:57:25;102267.06;;;17.52;54.37
77205;BME280;66188;46.626;18.866;2022-12-18T06:59:51;102268.06;;;17.51;54.42
77205;BME280;66188;46.626;18.866;2022-12-18T07:02:16;102267.34;;;17.49;54.59
77205;BME280;66188;46.626;18.866;2022-12-18T07:04:42;102280.66;;;17.50;55.04
77205;BME280;66188;46.626;18.866;2022-12-18T07:07:08;102279.56;;;17.53;55.12
77205;BME280;66188;46.626;18.866;2022-12-18T07:09:33;102284.69;;;17.56;55.00
77205;BME280;66188;46.626;18.866;2022-12-18T07:11:58;102283.69;;;17.57;55.12
77205;BME280;66188;46.626;18.866;2022-12-18T07:14:24;102289.66;;;17.60;55.32
77205;BME280;66188;46.626;18.866;2022-12-18T07:16:49;102289.50;;;17.62;55.20
77205;BME280;66188;46.626;18.866;2022-12-18T07:19:15;102300.44;;;17.70;55.37
77205;BME280;66188;46.626;18.866;2022-12-18T07:21:40;102304.28;;;17.77;55.21
77205;BME280;66188;46.626;18.866;2022-12-18T07:24:06;102313.25;;;17.87;54.93
77205;BME280;66188;46.626;18.866;2022-12-18T07:26:31;102311.56;;;17.96;54.28
77205;BME280;66188;46.626;18.866;2022-12-18T07:28:57;102312.16;;;18.09;53.96
77205;BME280;66188;46.626;18.866;2022-12-18T07:31:23;102325.34;;;18.21;54.02
77205;BME280;66188;46.626;18.866;2022-12-18T07:33:50;102320.53;;;18.35;53.55
77205;BME280;66188;46.626;18.866;2022-12-18T07:36:15;102337.56;;;18.45;53.12
77205;BME280;66188;46.626;18.866;2022-12-18T07:38:41;102339.59;;;18.52;53.15
77205;BME280;66188;46.626;18.866;2022-12-18T07:41:10;102339.72;;;18.60;53.14
77205;BME280;66188;46.626;18.866;2022-12-18T07:43:36;102348.94;;;18.67;53.03
77205;BME280;66188;46.626;18.866;2022-12-18T07:46:02;102353.91;;;18.72;52.55
77205;BME280;66188;46.626;18.866;2022-12-18T07:48:28;102357.72;;;18.79;52.63
77205;BME280;66188;46.626;18.866;2022-12-18T07:50:59;102361.56;;;18.86;51.94
77205;BME280;66188;46.626;18.866;2022-12-18T07:53:24;102362.81;;;18.91;51.82
77205;BME280;66188;46.626;18.866;2022-12-18T07:55:57;102366.78;;;18.97;51.55
77205;BME280;66188;46.626;18.866;2022-12-18T07:58:23;102370.91;;;19.01;51.62
77205;BME280;66188;46.626;18.866;2022-12-18T08:00:48;102378.56;;;19.06;51.73
77205;BME280;66188;46.626;18.866;2022-12-18T08:03:14;102384.53;;;19.09;51.53
77205;BME280;66188;46.626;18.866;2022-12-18T08:05:39;102387.66;;;19.14;51.79
77205;BME280;66188;46.626;18.866;2022-12-18T08:08:05;102385.66;;;19.16;51.36
77205;BME280;66188;46.626;18.866;2022-12-18T08:10:30;102386.19;;;19.20;51.68
77205;BME280;66188;46.626;18.866;2022-12-18T08:12:56;102397.13;;;19.28;52.55
77205;BME280;66188;46.626;18.866;2022-12-18T08:15:21;102408.78;;;19.28;50.73
77205;BME280;66188;46.626;18.866;2022-12-18T08:17:47;102411.47;;;19.28;51.41
77205;BME280;66188;46.626;18.866;2022-12-18T08:20:12;102418.59;;;19.29;51.32
77205;BME280;66188;46.626;18.866;2022-12-18T08:22:41;102420.44;;;19.29;51.29
77205;BME280;66188;46.626;18.866;2022-12-18T08:25:07;102424.00;;;19.29;51.52
77205;BME280;66188;46.626;18.866;2022-12-18T08:27:32;102432.78;;;19.31;51.21
77205;BME280;66188;46.626;18.866;2022-12-18T08:29:58;102430.38;;;19.28;50.93
77205;BME280;66188;46.626;18.866;2022-12-18T08:32:25;102433.94;;;19.29;51.25
77205;BME280;66188;46.626;18.866;2022-12-18T08:34:51;102442.56;;;19.32;51.35
77205;BME280;66188;46.626;18.866;2022-12-18T08:37:16;102440.59;;;19.34;51.67
77205;BME280;66188;46.626;18.866;2022-12-18T08:39:41;102438.59;;;19.36;50.96
77205;BME280;66188;46.626;18.866;2022-12-18T08:42:07;102436.81;;;19.37;51.38
77205;BME280;66188;46.626;18.866;2022-12-18T08:44:51;102441.19;;;19.38;50.99
77205;BME280;66188;46.626;18.866;2022-12-18T08:47:16;102443.59;;;19.41;51.32
77205;BME280;66188;46.626;18.866;2022-12-18T08:49:41;102449.69;;;19.43;50.95
77205;BME280;66188;46.626;18.866;2022-12-18T08:52:07;102455.81;;;19.45;51.43
77205;BME280;66188;46.626;18.866;2022-12-18T08:54:32;102447.56;;;19.46;50.82
77205;BME280;66188;46.626;18.866;2022-12-18T08:56:58;102441.16;;;19.47;51.28
77205;BME280;66188;46.626;18.866;2022-12-18T08:59:23;102444.28;;;19.52;51.48
77205;BME280;66188;46.626;18.866;2022-12-18T09:01:49;102436.59;;;19.58;51.32
77205;BME280;66188;46.626;18.866;2022-12-18T09:04:14;102438.13;;;19.70;50.97
77205;BME280;66188;46.626;18.866;2022-12-18T09:06:40;102435.97;;;19.73;50.82
77205;BME280;66188;46.626;18.866;2022-12-18T09:09:06;102435.81;;;19.75;50.68
77205;BME280;66188;46.626;18.866;2022-12-18T09:11:32;102421.63;;;19.73;50.56
77205;BME280;66188;46.626;18.866;2022-12-18T09:13:59;102426.00;;;19.74;50.76
77205;BME280;66188;46.626;18.866;2022-12-18T09:16:26;102436.81;;;19.74;50.44
77205;BME280;66188;46.626;18.866;2022-12-18T09:18:54;102433.00;;;19.67;48.47
77205;BME280;66188;46.626;18.866;2022-12-18T09:21:25;102428.34;;;19.59;48.56
77205;BME280;66188;46.626;18.866;2022-12-18T09:23:52;102444.56;;;19.59;49.10
77205;BME280;66188;46.626;18.866;2022-12-18T09:26:18;102447.09;;;19.61;49.34
77205;BME280;66188;46.626;18.866;2022-12-18T09:28:43;102435.47;;;19.60;49.63
77205;BME280;66188;46.626;18.866;2022-12-18T09:31:11;102440.69;;;19.62;49.96
77205;BME280;66188;46.626;18.866;2022-12-18T09:33:37;102432.59;;;19.62;50.01
77205;BME280;66188;46.626;18.866;2022-12-18T09:36:05;102424.34;;;19.63;50.00
77205;BME280;66188;46.626;18.866;2022-12-18T09:38:32;102422.50;;;19.64;49.91
77205;BME280;66188;46.626;18.866;2022-12-18T09:41:00;102421.63;;;19.63;50.27
77205;BME280;66188;46.626;18.866;2022-12-18T09:43:35;102428.47;;;19.67;49.82
77205;BME280;66188;46.626;18.866;2022-12-18T09:46:15;102418.50;;;19.68;49.99
77205;BME280;66188;46.626;18.866;2022-12-18T09:48:45;102414.78;;;19.69;50.09
77205;BME280;66188;46.626;18.866;2022-12-18T09:51:23;102423.59;;;19.71;50.32
77205;BME280;66188;46.626;18.866;2022-12-18T09:53:55;102414.50;;;19.72;49.81
77205;BME280;66188;46.626;18.866;2022-12-18T09:56:24;102407.25;;;19.72;50.00
77205;BME280;66188;46.626;18.866;2022-12-18T09:58:59;102409.78;;;19.74;49.69
77205;BME280;66188;46.626;18.866;2022-12-18T10:01:27;102408.81;;;19.75;49.83
77205;BME280;66188;46.626;18.866;2022-12-18T10:03:54;102411.34;;;19.76;49.94
77205;BME280;66188;46.626;18.866;2022-12-18T10:06:33;102411.22;;;19.78;49.58
77205;BME280;66188;46.626;18.866;2022-12-18T10:09:09;102412.44;;;19.83;49.74
77205;BME280;66188;46.626;18.866;2022-12-18T10:14:55;102420.94;;;19.98;49.56
77205;BME280;66188;46.626;18.866;2022-12-18T10:20:00;102406.56;;;19.97;49.80
77205;BME280;66188;46.626;18.866;2022-12-18T10:25:30;102404.00;;;19.96;49.64
77205;BME280;66188;46.626;18.866;2022-12-18T10:28:08;102417.66;;;19.94;49.38
77205;BME280;66188;46.626;18.866;2022-12-18T10:30:35;102406.69;;;19.96;49.00
77205;BME280;66188;46.626;18.866;2022-12-18T10:33:02;102405.00;;;19.95;49.79
77205;BME280;66188;46.626;18.866;2022-12-18T10:35:28;102404.00;;;19.96;49.53
77205;BME280;66188;46.626;18.866;2022-12-18T10:40:58;102398.59;;;19.96;49.35
77205;BME280;66188;46.626;18.866;2022-12-18T10:43:29;102396.75;;;19.96;49.28
77205;BME280;66188;46.626;18.866;2022-12-18T10:56:50;102403.31;;;19.94;49.35
77205;BME280;66188;46.626;18.866;2022-12-18T10:59:17;102409.41;;;19.96;48.83
77205;BME280;66188;46.626;18.866;2022-12-18T11:04:21;102418.53;;;19.95;49.37
77205;BME280;66188;46.626;18.866;2022-12-18T11:07:05;102411.41;;;19.94;48.92
77205;BME280;66188;46.626;18.866;2022-12-18T11:09:35;102412.72;;;19.90;48.95
77205;BME280;66188;46.626;18.866;2022-12-18T11:12:04;102408.47;;;19.87;48.85
77205;BME280;66188;46.626;18.866;2022-12-18T11:14:41;102407.03;;;19.83;49.07
77205;BME280;66188;46.626;18.866;2022-12-18T11:17:19;102402.94;;;19.79;49.20
77205;BME280;66188;46.626;18.866;2022-12-18T11:19:52;102406.09;;;19.75;49.22
77205;BME280;66188;46.626;18.866;2022-12-18T11:22:30;102417.03;;;19.73;49.27
77205;BME280;66188;46.626;18.866;2022-12-18T11:25:25;102406.41;;;19.72;48.85
77205;BME280;66188;46.626;18.866;2022-12-18T11:33:38;102409.00;;;19.64;48.82
77205;BME280;66188;46.626;18.866;2022-12-18T11:36:08;102404.88;;;19.60;48.79
77205;BME280;66188;46.626;18.866;2022-12-18T11:38:37;102404.03;;;19.59;48.90
77205;BME280;66188;46.626;18.866;2022-12-18T11:43:59;102395.69;;;19.52;49.08
77205;BME280;66188;46.626;18.866;2022-12-18T11:46:37;102401.22;;;19.51;48.79
77205;BME280;66188;46.626;18.866;2022-12-18T11:49:19;102393.97;;;19.51;49.08
77205;BME280;66188;46.626;18.866;2022-12-18T11:52:00;102391.28;;;19.51;49.09
77205;BME280;66188;46.626;18.866;2022-12-18T11:54:28;102393.97;;;19.51;49.49
77205;BME280;66188;46.626;18.866;2022-12-18T11:57:01;102395.97;;;19.49;49.46
77205;BME280;66188;46.626;18.866;2022-12-18T11:59:36;102384.59;;;19.46;49.10
77205;BME280;66188;46.626;18.866;2022-12-18T12:05:20;102382.47;;;19.40;49.61
77205;BME280;66188;46.626;18.866;2022-12-18T12:16:24;102375.06;;;19.32;49.43
77205;BME280;66188;46.626;18.866;2022-12-18T12:21:49;102364.59;;;19.29;49.45
77205;BME280;66188;46.626;18.866;2022-12-18T12:38:01;102374.84;;;19.16;48.57
77205;BME280;66188;46.626;18.866;2022-12-18T12:40:32;102374.28;;;19.13;48.95
77205;BME280;66188;46.626;18.866;2022-12-18T12:43:22;102385.38;;;19.10;49.11
77205;BME280;66188;46.626;18.866;2022-12-18T12:45:55;102378.41;;;19.07;49.02
77205;BME280;66188;46.626;18.866;2022-12-18T12:48:40;102385.81;;;19.05;49.23
77205;BME280;66188;46.626;18.866;2022-12-18T12:51:12;102387.97;;;19.02;49.68
77205;BME280;66188;46.626;18.866;2022-12-18T12:53:39;102385.25;;;19.02;49.53
77205;BME280;66188;46.626;18.866;2022-12-18T12:56:07;102394.50;;;18.99;49.33
77205;BME280;66188;46.626;18.866;2022-12-18T13:03:58;102399.75;;;18.91;49.53
77205;BME280;66188;46.626;18.866;2022-12-18T13:06:32;102398.19;;;18.88;49.96
77205;BME280;66188;46.626;18.866;2022-12-18T13:09:02;102392.06;;;18.86;49.93
77205;BME280;66188;46.626;18.866;2022-12-18T13:14:26;102405.00;;;18.83;49.96
77205;BME280;66188;46.626;18.866;2022-12-18T13:16:51;102406.16;;;18.80;49.78
77205;BME280;66188;46.626;18.866;2022-12-18T13:19:25;102412.41;;;18.81;50.37
77205;BME280;66188;46.626;18.866;2022-12-18T13:21:55;102405.56;;;18.77;49.88
77205;BME280;66188;46.626;18.866;2022-12-18T13:24:25;102416.50;;;18.75;49.73
77205;BME280;66188;46.626;18.866;2022-12-18T13:26:51;102413.94;;;18.74;50.26
77205;BME280;66188;46.626;18.866;2022-12-18T13:29:40;102423.91;;;18.73;50.55
77205;BME280;66188;46.626;18.866;2022-12-18T13:32:19;102426.59;;;18.73;50.22
77205;BME280;66188;46.626;18.866;2022-12-18T13:34:45;102420.47;;;18.71;50.64
77205;BME280;66188;46.626;18.866;2022-12-18T13:37:36;102432.28;;;18.70;50.03
77205;BME280;66188;46.626;18.866;2022-12-18T13:40:53;102429.69;;;18.69;50.06
77205;BME280;66188;46.626;18.866;2022-12-18T13:46:00;102425.31;;;18.68;51.39
77205;BME280;66188;46.626;18.866;2022-12-18T13:48:27;102428.00;;;18.68;51.16
77205;BME280;66188;46.626;18.866;2022-12-18T13:53:48;102418.09;;;18.68;51.28
77205;BME280;66188;46.626;18.866;2022-12-18T13:56:18;102419.06;;;18.67;51.14
77205;BME280;66188;46.626;18.866;2022-12-18T13:59:03;102418.22;;;18.67;51.21
77205;BME280;66188;46.626;18.866;2022-12-18T14:01:30;102414.81;;;18.65;50.94
77205;BME280;66188;46.626;18.866;2022-12-18T14:04:18;102422.75;;;18.66;51.08
77205;BME280;66188;46.626;18.866;2022-12-18T14:06:44;102430.13;;;18.74;51.80
77205;BME280;66188;46.626;18.866;2022-12-18T14:09:14;102433.25;;;18.69;50.87
77205;BME280;66188;46.626;18.866;2022-12-18T14:11:40;102437.09;;;18.67;51.23
77205;BME280;66188;46.626;18.866;2022-12-18T14:14:16;102447.88;;;18.67;50.75
77205;BME280;66188;46.626;18.866;2022-12-18T14:16:42;102449.59;;;18.68;50.69
77205;BME280;66188;46.626;18.866;2022-12-18T14:19:14;102440.38;;;18.70;51.12
77205;BME280;66188;46.626;18.866;2022-12-18T14:21:46;102433.69;;;18.84;51.99
77205;BME280;66188;46.626;18.866;2022-12-18T14:24:18;102446.59;;;19.00;51.58
77205;BME280;66188;46.626;18.866;2022-12-18T14:26:44;102446.88;;;19.16;51.40
77205;BME280;66188;46.626;18.866;2022-12-18T14:29:26;102445.19;;;19.24;50.75
77205;BME280;66188;46.626;18.866;2022-12-18T14:32:15;102444.16;;;19.25;50.54
77205;BME280;66188;46.626;18.866;2022-12-18T14:34:49;102452.13;;;19.27;50.75
77205;BME280;66188;46.626;18.866;2022-12-18T14:37:17;102452.97;;;19.27;50.86
77205;BME280;66188;46.626;18.866;2022-12-18T14:40:02;102457.09;;;19.41;51.37